sensor_id;sensor_type;location;lat;lon;timestamp;P1;durP1;ratioP1;P2;durP2;ratioP2
75112;SDS011;63692;47.338;8.520;2023-06-22T03:56:12;12.27;;;5.20;;
75112;SDS011;63692;47.338;8.520;2023-06-22T03:58:47;10.70;;;5.07;;
75112;SDS011;63692;47.338;8.520;2023-06-22T04:01:13;9.32;;;4.95;;
75112;SDS011;63692;47.338;8.520;2023-06-22T04:03:38;12.80;;;5.10;;
75112;SDS011;63692;47.338;8.520;2023-06-22T04:06:08;12.18;;;5.30;;
75112;SDS011;63692;47.338;8.520;2023-06-22T04:08:33;10.05;;;4.82;;
75112;SDS011;63692;47.338;8.520;2023-06-22T04:11:02;12.80;;;5.68;;
75112;SDS011;63692;47.338;8.520;2023-06-22T04:13:28;9.85;;;5.47;;
75112;SDS011;63692;47.338;8.520;2023-06-22T04:15:53;10.45;;;5.25;;
75112;SDS011;63692;47.338;8.520;2023-06-22T04:18:22;10.25;;;4.82;;
75112;SDS011;63692;47.338;8.520;2023-06-22T04:20:50;10.20;;;5.50;;
75112;SDS011;63692;47.338;8.520;2023-06-22T04:23:15;12.10;;;5.47;;
75112;SDS011;63692;47.338;8.520;2023-06-22T04:25:41;11.63;;;5.78;;
75112;SDS011;63692;47.338;8.520;2023-06-22T04:28:07;11.13;;;5.30;;
75112;SDS011;63692;47.338;8.520;2023-06-22T04:40:26;13.93;;;5.45;;
75112;SDS011;63692;47.338;8.520;2023-06-22T04:50:36;14.40;;;5.97;;
75112;SDS011;63692;47.338;8.520;2023-06-22T04:53:03;12.65;;;5.38;;
75112;SDS011;63692;47.338;8.520;2023-06-22T04:57:57;12.23;;;5.78;;
75112;SDS011;63692;47.338;8.520;2023-06-22T05:00:29;14.23;;;5.68;;
75112;SDS011;63692;47.338;8.520;2023-06-22T05:02:55;15.85;;;6.30;;
75112;SDS011;63692;47.338;8.520;2023-06-22T05:05:24;18.02;;;6.20;;
75112;SDS011;63692;47.338;8.520;2023-06-22T05:07:50;13.18;;;5.13;;
75112;SDS011;63692;47.338;8.520;2023-06-22T05:10:18;11.27;;;5.45;;
75112;SDS011;63692;47.338;8.520;2023-06-22T05:12:44;13.95;;;6.40;;
75112;SDS011;63692;47.338;8.520;2023-06-22T05:15:10;15.68;;;6.82;;
75112;SDS011;63692;47.338;8.520;2023-06-22T05:17:36;15.45;;;7.55;;
75112;SDS011;63692;47.338;8.520;2023-06-22T05:20:10;16.20;;;7.18;;
75112;SDS011;63692;47.338;8.520;2023-06-22T05:22:37;19.63;;;8.15;;
75112;SDS011;63692;47.338;8.520;2023-06-22T05:25:04;17.45;;;8.48;;
75112;SDS011;63692;47.338;8.520;2023-06-22T05:27:31;17.50;;;8.40;;
75112;SDS011;63692;47.338;8.520;2023-06-22T05:34:59;19.27;;;7.85;;
75112;SDS011;63692;47.338;8.520;2023-06-22T05:39:52;18.65;;;9.05;;
75112;SDS011;63692;47.338;8.520;2023-06-22T05:42:20;19.02;;;8.93;;
75112;SDS011;63692;47.338;8.520;2023-06-22T05:44:46;18.45;;;8.57;;
75112;SDS011;63692;47.338;8.520;2023-06-22T05:47:12;17.33;;;8.52;;
75112;SDS011;63692;47.338;8.520;2023-06-22T05:49:38;15.95;;;8.38;;
75112;SDS011;63692;47.338;8.520;2023-06-22T05:52:03;22.73;;;9.57;;
75112;SDS011;63692;47.338;8.520;2023-06-22T05:54:29;19.02;;;8.40;;
75112;SDS011;63692;47.338;8.520;2023-06-22T05:56:55;21.08;;;8.88;;
75112;SDS011;63692;47.338;8.520;2023-06-22T06:01:48;20.15;;;8.05;;
75112;SDS011;63692;47.338;8.520;2023-06-22T06:04:18;21.70;;;8.68;;
75112;SDS011;63692;47.338;8.520;2023-06-22T06:09:17;18.88;;;8.20;;
75112;SDS011;63692;47.338;8.520;2023-06-22T06:16:45;18.38;;;7.90;;
75112;SDS011;63692;47.338;8.520;2023-06-22T06:19:11;20.17;;;8.18;;
75112;SDS011;63692;47.338;8.520;2023-06-22T06:24:08;17.02;;;8.00;;
75112;SDS011;63692;47.338;8.520;2023-06-22T06:26:33;16.70;;;7.75;;
75112;SDS011;63692;47.338;8.520;2023-06-22T06:29:01;22.15;;;8.13;;
75112;SDS011;63692;47.338;8.520;2023-06-22T06:31:27;19.73;;;8.00;;
75112;SDS011;63692;47.338;8.520;2023-06-22T06:33:53;21.10;;;8.23;;
75112;SDS011;63692;47.338;8.520;2023-06-22T06:36:20;19.23;;;8.40;;
75112;SDS011;63692;47.338;8.520;2023-06-22T06:38:46;17.75;;;8.63;;
75112;SDS011;63692;47.338;8.520;2023-06-22T06:41:13;24.20;;;8.40;;
75112;SDS011;63692;47.338;8.520;2023-06-22T06:43:40;19.95;;;8.27;;
75112;SDS011;63692;47.338;8.520;2023-06-22T06:46:07;19.35;;;7.82;;
75112;SDS011;63692;47.338;8.520;2023-06-22T06:48:33;18.20;;;8.60;;
75112;SDS011;63692;47.338;8.520;2023-06-22T06:50:58;16.63;;;7.63;;
75112;SDS011;63692;47.338;8.520;2023-06-22T06:53:24;18.00;;;8.00;;
75112;SDS011;63692;47.338;8.520;2023-06-22T06:58:19;18.27;;;7.63;;
75112;SDS011;63692;47.338;8.520;2023-06-22T07:00:44;16.90;;;8.00;;
75112;SDS011;63692;47.338;8.520;2023-06-22T07:03:10;22.73;;;8.02;;
75112;SDS011;63692;47.338;8.520;2023-06-22T07:05:36;20.45;;;8.10;;
75112;SDS011;63692;47.338;8.520;2023-06-22T07:08:01;18.50;;;8.18;;
75112;SDS011;63692;47.338;8.520;2023-06-22T07:10:27;21.63;;;8.70;;
75112;SDS011;63692;47.338;8.520;2023-06-22T07:12:54;16.35;;;7.78;;
75112;SDS011;63692;47.338;8.520;2023-06-22T07:15:19;15.10;;;7.25;;
75112;SDS011;63692;47.338;8.520;2023-06-22T07:17:45;16.02;;;7.10;;
75112;SDS011;63692;47.338;8.520;2023-06-22T07:20:11;14.13;;;6.70;;
75112;SDS011;63692;47.338;8.520;2023-06-22T07:22:41;19.40;;;7.22;;
75112;SDS011;63692;47.338;8.520;2023-06-22T07:25:08;15.93;;;7.20;;
75112;SDS011;63692;47.338;8.520;2023-06-22T07:27:38;15.75;;;8.13;;
75112;SDS011;63692;47.338;8.520;2023-06-22T07:30:07;17.73;;;8.50;;
75112;SDS011;63692;47.338;8.520;2023-06-22T07:32:34;20.85;;;8.07;;
75112;SDS011;63692;47.338;8.520;2023-06-22T07:35:00;15.50;;;8.18;;
75112;SDS011;63692;47.338;8.520;2023-06-22T07:37:26;15.90;;;8.15;;
75112;SDS011;63692;47.338;8.520;2023-06-22T07:39:53;18.80;;;8.40;;
75112;SDS011;63692;47.338;8.520;2023-06-22T07:42:23;23.88;;;8.35;;
75112;SDS011;63692;47.338;8.520;2023-06-22T07:44:52;18.40;;;7.78;;
75112;SDS011;63692;47.338;8.520;2023-06-22T07:47:18;14.65;;;7.32;;
75112;SDS011;63692;47.338;8.520;2023-06-22T07:49:44;19.35;;;8.15;;
75112;SDS011;63692;47.338;8.520;2023-06-22T07:52:10;14.02;;;7.78;;
75112;SDS011;63692;47.338;8.520;2023-06-22T07:54:36;15.70;;;7.80;;
75112;SDS011;63692;47.338;8.520;2023-06-22T07:57:02;14.55;;;7.05;;
75112;SDS011;63692;47.338;8.520;2023-06-22T07:59:28;17.45;;;7.53;;
75112;SDS011;63692;47.338;8.520;2023-06-22T08:01:54;27.23;;;7.75;;
75112;SDS011;63692;47.338;8.520;2023-06-22T08:04:20;23.58;;;7.07;;
75112;SDS011;63692;47.338;8.520;2023-06-22T08:06:46;14.82;;;6.55;;
75112;SDS011;63692;47.338;8.520;2023-06-22T08:09:12;14.00;;;7.25;;
75112;SDS011;63692;47.338;8.520;2023-06-22T08:11:37;16.63;;;6.93;;
75112;SDS011;63692;47.338;8.520;2023-06-22T08:14:03;12.20;;;5.78;;
75112;SDS011;63692;47.338;8.520;2023-06-22T08:16:29;17.67;;;6.70;;
75112;SDS011;63692;47.338;8.520;2023-06-22T08:18:54;17.85;;;6.88;;
75112;SDS011;63692;47.338;8.520;2023-06-22T08:21:20;13.52;;;6.75;;
75112;SDS011;63692;47.338;8.520;2023-06-22T08:23:47;16.15;;;6.97;;
75112;SDS011;63692;47.338;8.520;2023-06-22T08:26:14;16.55;;;6.80;;
75112;SDS011;63692;47.338;8.520;2023-06-22T08:28:40;14.70;;;6.72;;
75112;SDS011;63692;47.338;8.520;2023-06-22T08:31:05;20.70;;;6.80;;
75112;SDS011;63692;47.338;8.520;2023-06-22T08:33:31;11.13;;;5.63;;
75112;SDS011;63692;47.338;8.520;2023-06-22T08:35:58;13.77;;;5.10;;
75112;SDS011;63692;47.338;8.520;2023-06-22T08:38:24;17.10;;;6.32;;
75112;SDS011;63692;47.338;8.520;2023-06-22T08:40:50;14.65;;;6.22;;
75112;SDS011;63692;47.338;8.520;2023-06-22T08:43:16;13.90;;;5.82;;
75112;SDS011;63692;47.338;8.520;2023-06-22T08:45:41;14.38;;;6.30;;
75112;SDS011;63692;47.338;8.520;2023-06-22T08:48:07;16.75;;;6.35;;
75112;SDS011;63692;47.338;8.520;2023-06-22T08:50:32;12.73;;;6.60;;
75112;SDS011;63692;47.338;8.520;2023-06-22T08:52:58;14.32;;;6.38;;
75112;SDS011;63692;47.338;8.520;2023-06-22T08:55:23;18.55;;;7.05;;
75112;SDS011;63692;47.338;8.520;2023-06-22T08:57:49;18.13;;;6.93;;
75112;SDS011;63692;47.338;8.520;2023-06-22T09:00:16;14.32;;;7.00;;
75112;SDS011;63692;47.338;8.520;2023-06-22T09:02:45;15.48;;;6.63;;
75112;SDS011;63692;47.338;8.520;2023-06-22T09:05:12;16.48;;;6.45;;
75112;SDS011;63692;47.338;8.520;2023-06-22T09:07:38;14.55;;;6.57;;
75112;SDS011;63692;47.338;8.520;2023-06-22T09:10:04;13.25;;;5.88;;
75112;SDS011;63692;47.338;8.520;2023-06-22T09:12:30;13.93;;;6.57;;
75112;SDS011;63692;47.338;8.520;2023-06-22T09:14:57;16.98;;;7.38;;
75112;SDS011;63692;47.338;8.520;2023-06-22T09:17:26;17.70;;;7.00;;
75112;SDS011;63692;47.338;8.520;2023-06-22T09:19:52;17.50;;;6.80;;
75112;SDS011;63692;47.338;8.520;2023-06-22T09:22:18;14.27;;;6.30;;
75112;SDS011;63692;47.338;8.520;2023-06-22T09:24:43;15.82;;;6.95;;
75112;SDS011;63692;47.338;8.520;2023-06-22T09:27:09;12.20;;;6.70;;
75112;SDS011;63692;47.338;8.520;2023-06-22T09:29:35;14.07;;;7.05;;
75112;SDS011;63692;47.338;8.520;2023-06-22T09:32:00;16.98;;;7.00;;
75112;SDS011;63692;47.338;8.520;2023-06-22T09:34:26;19.25;;;6.88;;
75112;SDS011;63692;47.338;8.520;2023-06-22T09:36:52;18.77;;;6.10;;
75112;SDS011;63692;47.338;8.520;2023-06-22T09:39:18;17.65;;;7.57;;
75112;SDS011;63692;47.338;8.520;2023-06-22T09:41:44;22.42;;;7.38;;
75112;SDS011;63692;47.338;8.520;2023-06-22T09:44:09;17.73;;;7.00;;
75112;SDS011;63692;47.338;8.520;2023-06-22T09:46:35;21.55;;;7.95;;
75112;SDS011;63692;47.338;8.520;2023-06-22T09:49:00;14.50;;;5.35;;
75112;SDS011;63692;47.338;8.520;2023-06-22T09:51:26;16.40;;;6.43;;
75112;SDS011;63692;47.338;8.520;2023-06-22T09:53:52;16.30;;;6.22;;
75112;SDS011;63692;47.338;8.520;2023-06-22T09:56:19;14.80;;;6.38;;
75112;SDS011;63692;47.338;8.520;2023-06-22T09:58:45;17.40;;;6.47;;
75112;SDS011;63692;47.338;8.520;2023-06-22T10:01:15;14.40;;;6.00;;
75112;SDS011;63692;47.338;8.520;2023-06-22T10:03:41;15.60;;;6.10;;
75112;SDS011;63692;47.338;8.520;2023-06-22T10:06:07;18.30;;;6.28;;
75112;SDS011;63692;47.338;8.520;2023-06-22T10:08:34;16.48;;;4.85;;
75112;SDS011;63692;47.338;8.520;2023-06-22T10:11:00;16.58;;;5.63;;
75112;SDS011;63692;47.338;8.520;2023-06-22T10:13:26;15.90;;;5.85;;
75112;SDS011;63692;47.338;8.520;2023-06-22T10:15:51;16.33;;;5.88;;
75112;SDS011;63692;47.338;8.520;2023-06-22T10:18:18;14.18;;;6.95;;
75112;SDS011;63692;47.338;8.520;2023-06-22T10:20:44;14.57;;;6.60;;
75112;SDS011;63692;47.338;8.520;2023-06-22T10:23:12;18.67;;;7.28;;
75112;SDS011;63692;47.338;8.520;2023-06-22T10:25:37;14.88;;;6.63;;
75112;SDS011;63692;47.338;8.520;2023-06-22T10:28:03;17.05;;;7.13;;
75112;SDS011;63692;47.338;8.520;2023-06-22T10:30:29;22.00;;;6.43;;
75112;SDS011;63692;47.338;8.520;2023-06-22T10:32:54;16.27;;;6.57;;
75112;SDS011;63692;47.338;8.520;2023-06-22T10:35:20;17.48;;;6.45;;
75112;SDS011;63692;47.338;8.520;2023-06-22T10:37:46;18.23;;;7.00;;
75112;SDS011;63692;47.338;8.520;2023-06-22T10:40:15;15.10;;;6.88;;
75112;SDS011;63692;47.338;8.520;2023-06-22T10:42:42;15.90;;;6.93;;
75112;SDS011;63692;47.338;8.520;2023-06-22T10:45:08;14.65;;;6.63;;
75112;SDS011;63692;47.338;8.520;2023-06-22T10:47:34;17.98;;;6.75;;
75112;SDS011;63692;47.338;8.520;2023-06-22T10:50:00;16.05;;;6.70;;
75112;SDS011;63692;47.338;8.520;2023-06-22T10:52:26;14.15;;;6.57;;
75112;SDS011;63692;47.338;8.520;2023-06-22T10:54:52;10.80;;;6.30;;
75112;SDS011;63692;47.338;8.520;2023-06-22T10:57:18;14.02;;;6.63;;
75112;SDS011;63692;47.338;8.520;2023-06-22T10:59:44;13.32;;;6.10;;
75112;SDS011;63692;47.338;8.520;2023-06-22T11:02:10;12.82;;;6.40;;
75112;SDS011;63692;47.338;8.520;2023-06-22T11:04:36;14.60;;;6.28;;
75112;SDS011;63692;47.338;8.520;2023-06-22T11:09:44;14.48;;;6.90;;
75112;SDS011;63692;47.338;8.520;2023-06-22T11:12:16;15.98;;;6.20;;
75112;SDS011;63692;47.338;8.520;2023-06-22T11:14:44;17.02;;;6.25;;
75112;SDS011;63692;47.338;8.520;2023-06-22T11:17:10;20.98;;;6.55;;
75112;SDS011;63692;47.338;8.520;2023-06-22T11:19:36;16.48;;;6.18;;
75112;SDS011;63692;47.338;8.520;2023-06-22T11:22:09;12.88;;;6.30;;
75112;SDS011;63692;47.338;8.520;2023-06-22T11:24:38;19.92;;;6.75;;
75112;SDS011;63692;47.338;8.520;2023-06-22T11:27:06;16.85;;;6.53;;
75112;SDS011;63692;47.338;8.520;2023-06-22T11:29:32;15.98;;;6.50;;
75112;SDS011;63692;47.338;8.520;2023-06-22T11:37:00;15.35;;;6.15;;
75112;SDS011;63692;47.338;8.520;2023-06-22T11:39:26;11.85;;;5.82;;
75112;SDS011;63692;47.338;8.520;2023-06-22T11:41:52;19.60;;;6.82;;
75112;SDS011;63692;47.338;8.520;2023-06-22T11:44:24;24.13;;;7.88;;
75112;SDS011;63692;47.338;8.520;2023-06-22T11:46:52;22.35;;;6.65;;
75112;SDS011;63692;47.338;8.520;2023-06-22T11:49:17;14.73;;;5.93;;
75112;SDS011;63692;47.338;8.520;2023-06-22T11:51:53;16.85;;;6.20;;
75112;SDS011;63692;47.338;8.520;2023-06-22T11:54:35;15.80;;;6.50;;
75112;SDS011;63692;47.338;8.520;2023-06-22T11:57:02;19.95;;;7.43;;
75112;SDS011;63692;47.338;8.520;2023-06-22T11:59:28;13.43;;;6.55;;
75112;SDS011;63692;47.338;8.520;2023-06-22T12:01:59;20.20;;;6.13;;
75112;SDS011;63692;47.338;8.520;2023-06-22T12:04:25;17.02;;;6.47;;
75112;SDS011;63692;47.338;8.520;2023-06-22T12:06:53;16.50;;;6.65;;
75112;SDS011;63692;47.338;8.520;2023-06-22T12:09:21;13.65;;;6.03;;
75112;SDS011;63692;47.338;8.520;2023-06-22T12:11:47;15.32;;;6.40;;
75112;SDS011;63692;47.338;8.520;2023-06-22T12:14:17;19.02;;;6.20;;
75112;SDS011;63692;47.338;8.520;2023-06-22T12:16:43;14.27;;;5.35;;
75112;SDS011;63692;47.338;8.520;2023-06-22T12:19:09;13.18;;;5.20;;
75112;SDS011;63692;47.338;8.520;2023-06-22T12:21:35;13.93;;;5.18;;
75112;SDS011;63692;47.338;8.520;2023-06-22T12:24:05;16.00;;;5.63;;
75112;SDS011;63692;47.338;8.520;2023-06-22T12:26:34;12.88;;;5.32;;
75112;SDS011;63692;47.338;8.520;2023-06-22T12:31:35;14.35;;;5.13;;
75112;SDS011;63692;47.338;8.520;2023-06-22T12:44:06;21.40;;;6.18;;
75112;SDS011;63692;47.338;8.520;2023-06-22T13:12:17;14.25;;;4.88;;
75112;SDS011;63692;47.338;8.520;2023-06-22T13:14:45;10.88;;;4.47;;
75112;SDS011;63692;47.338;8.520;2023-06-22T13:27:09;13.88;;;4.18;;
75112;SDS011;63692;47.338;8.520;2023-06-22T13:29:35;14.75;;;3.95;;
75112;SDS011;63692;47.338;8.520;2023-06-22T13:32:00;12.65;;;3.45;;
75112;SDS011;63692;47.338;8.520;2023-06-22T13:36:53;9.85;;;3.13;;
75112;SDS011;63692;47.338;8.520;2023-06-22T13:39:19;12.15;;;4.05;;
75112;SDS011;63692;47.338;8.520;2023-06-22T13:46:49;8.00;;;2.40;;
75112;SDS011;63692;47.338;8.520;2023-06-22T13:51:42;12.05;;;2.92;;
75112;SDS011;63692;47.338;8.520;2023-06-22T13:59:12;10.63;;;2.88;;
75112;SDS011;63692;47.338;8.520;2023-06-22T14:01:37;10.80;;;3.22;;
75112;SDS011;63692;47.338;8.520;2023-06-22T14:04:05;10.35;;;3.13;;
75112;SDS011;63692;47.338;8.520;2023-06-22T14:06:30;14.20;;;3.28;;
75112;SDS011;63692;47.338;8.520;2023-06-22T14:39:13;12.73;;;3.90;;
75112;SDS011;63692;47.338;8.520;2023-06-22T14:41:39;13.75;;;3.55;;
75112;SDS011;63692;47.338;8.520;2023-06-22T14:44:04;13.75;;;3.75;;
75112;SDS011;63692;47.338;8.520;2023-06-22T14:46:30;11.35;;;4.07;;
75112;SDS011;63692;47.338;8.520;2023-06-22T14:48:55;13.68;;;3.70;;
75112;SDS011;63692;47.338;8.520;2023-06-22T14:51:21;11.93;;;3.70;;
75112;SDS011;63692;47.338;8.520;2023-06-22T14:53:47;14.32;;;3.72;;
75112;SDS011;63692;47.338;8.520;2023-06-22T14:56:12;11.30;;;3.38;;
75112;SDS011;63692;47.338;8.520;2023-06-22T14:58:40;12.60;;;3.97;;
75112;SDS011;63692;47.338;8.520;2023-06-22T15:01:10;14.00;;;3.75;;
75112;SDS011;63692;47.338;8.520;2023-06-22T15:03:35;17.08;;;4.00;;
75112;SDS011;63692;47.338;8.520;2023-06-22T15:06:01;14.85;;;4.10;;
75112;SDS011;63692;47.338;8.520;2023-06-22T15:08:28;17.65;;;4.00;;
75112;SDS011;63692;47.338;8.520;2023-06-22T15:10:54;9.90;;;3.80;;
75112;SDS011;63692;47.338;8.520;2023-06-22T15:13:20;14.23;;;3.80;;
75112;SDS011;63692;47.338;8.520;2023-06-22T15:15:47;13.32;;;4.35;;
75112;SDS011;63692;47.338;8.520;2023-06-22T15:18:16;11.80;;;3.70;;
75112;SDS011;63692;47.338;8.520;2023-06-22T15:20:42;13.93;;;3.90;;
75112;SDS011;63692;47.338;8.520;2023-06-22T15:23:11;10.43;;;4.10;;
75112;SDS011;63692;47.338;8.520;2023-06-22T15:25:37;12.18;;;4.10;;
75112;SDS011;63692;47.338;8.520;2023-06-22T15:28:03;9.40;;;3.55;;
75112;SDS011;63692;47.338;8.520;2023-06-22T15:30:29;12.27;;;3.70;;
75112;SDS011;63692;47.338;8.520;2023-06-22T15:32:56;10.98;;;3.50;;
75112;SDS011;63692;47.338;8.520;2023-06-22T15:35:22;11.23;;;4.22;;
75112;SDS011;63692;47.338;8.520;2023-06-22T15:37:48;15.40;;;3.40;;
75112;SDS011;63692;47.338;8.520;2023-06-22T15:40:14;13.10;;;3.50;;
75112;SDS011;63692;47.338;8.520;2023-06-22T15:42:40;14.40;;;4.07;;
75112;SDS011;63692;47.338;8.520;2023-06-22T15:45:05;12.27;;;4.00;;
75112;SDS011;63692;47.338;8.520;2023-06-22T15:47:31;12.90;;;3.80;;
75112;SDS011;63692;47.338;8.520;2023-06-22T15:49:57;13.82;;;3.53;;
75112;SDS011;63692;47.338;8.520;2023-06-22T15:52:22;15.05;;;3.88;;
75112;SDS011;63692;47.338;8.520;2023-06-22T15:54:48;15.65;;;4.47;;
75112;SDS011;63692;47.338;8.520;2023-06-22T15:57:19;12.88;;;3.65;;
75112;SDS011;63692;47.338;8.520;2023-06-22T15:59:45;13.88;;;4.60;;
75112;SDS011;63692;47.338;8.520;2023-06-22T16:02:10;11.98;;;4.07;;
75112;SDS011;63692;47.338;8.520;2023-06-22T16:42:27;14.68;;;4.07;;
75112;SDS011;63692;47.338;8.520;2023-06-22T16:44:52;15.38;;;4.82;;
75112;SDS011;63692;47.338;8.520;2023-06-22T16:47:18;16.00;;;4.25;;
75112;SDS011;63692;47.338;8.520;2023-06-22T16:49:50;13.07;;;3.72;;
75112;SDS011;63692;47.338;8.520;2023-06-22T16:52:23;14.30;;;4.13;;
75112;SDS011;63692;47.338;8.520;2023-06-22T16:54:51;16.23;;;4.28;;
75112;SDS011;63692;47.338;8.520;2023-06-22T16:57:26;14.13;;;4.20;;
75112;SDS011;63692;47.338;8.520;2023-06-22T17:02:19;12.45;;;4.97;;
75112;SDS011;63692;47.338;8.520;2023-06-22T17:07:17;11.95;;;3.75;;
75112;SDS011;63692;47.338;8.520;2023-06-22T17:09:46;10.65;;;3.72;;
75112;SDS011;63692;47.338;8.520;2023-06-22T17:14:40;13.15;;;3.97;;
75112;SDS011;63692;47.338;8.520;2023-06-22T17:17:09;15.05;;;4.25;;
75112;SDS011;63692;47.338;8.520;2023-06-22T17:19:36;11.38;;;3.60;;
75112;SDS011;63692;47.338;8.520;2023-06-22T17:22:02;11.95;;;4.10;;
75112;SDS011;63692;47.338;8.520;2023-06-22T17:24:27;13.70;;;4.40;;
75112;SDS011;63692;47.338;8.520;2023-06-22T17:26:54;8.43;;;3.33;;
75112;SDS011;63692;47.338;8.520;2023-06-22T17:29:32;12.70;;;3.50;;
75112;SDS011;63692;47.338;8.520;2023-06-22T17:36:56;10.63;;;3.20;;
75112;SDS011;63692;47.338;8.520;2023-06-22T17:39:23;10.90;;;3.63;;
75112;SDS011;63692;47.338;8.520;2023-06-22T17:41:53;14.75;;;3.30;;
75112;SDS011;63692;47.338;8.520;2023-06-22T18:01:51;13.43;;;2.45;;
75112;SDS011;63692;47.338;8.520;2023-06-22T18:04:18;6.25;;;1.95;;
75112;SDS011;63692;47.338;8.520;2023-06-22T18:06:46;7.30;;;1.73;;
75112;SDS011;63692;47.338;8.520;2023-06-22T18:11:49;5.50;;;1.85;;
75112;SDS011;63692;47.338;8.520;2023-06-22T18:14:16;5.57;;;1.73;;
75112;SDS011;63692;47.338;8.520;2023-06-22T20:17:14;3.65;;;1.35;;
75112;SDS011;63692;47.338;8.520;2023-06-22T20:19:40;3.25;;;1.58;;
